createdAt,value
2022-11-28T00:45:39.730Z,4.31
2022-11-28T06:02:18.751Z,3.66
2022-11-28T06:04:46.343Z,3.67
2022-11-28T06:07:15.906Z,3.72
2022-11-28T06:09:45.733Z,3.72
2022-11-28T06:12:17.231Z,3.68
2022-11-28T06:56:53.931Z,3.78
2022-11-28T07:12:42.797Z,3.74
2022-11-28T07:23:44.039Z,3.73
2022-11-28T07:39:29.912Z,3.68
2022-11-28T07:50:28.703Z,3.60
2022-11-28T08:05:43.307Z,3.72
2022-11-28T08:08:10.685Z,3.74
2022-11-28T08:10:38.135Z,3.73
2022-11-28T08:35:25.188Z,3.86
2022-11-28T08:37:52.525Z,3.90
2022-11-28T08:40:19.850Z,3.94
2022-11-28T08:42:47.216Z,3.99
2022-11-28T08:45:16.284Z,4.02
2022-11-28T08:47:44.008Z,4.00
2022-11-28T08:54:29.733Z,4.07
2022-11-28T08:56:58.980Z,4.11
2022-11-28T08:59:30.227Z,4.14
2022-11-28T09:01:58.639Z,4.18
2022-11-28T09:04:26.210Z,4.16
2022-11-28T09:06:53.926Z,4.21
2022-11-28T09:09:21.922Z,4.24
2022-11-28T09:11:49.365Z,4.24
2022-11-28T09:14:17.058Z,4.27
2022-11-28T09:16:44.546Z,4.26
2022-11-28T09:19:12.177Z,4.31
2022-11-28T09:21:40.719Z,4.31
2022-11-28T09:24:08.907Z,4.34
2022-11-28T09:26:36.751Z,4.32
2022-11-28T09:29:04.249Z,4.37
2022-11-28T09:31:31.684Z,4.31
2022-11-28T09:33:59.232Z,4.31
2022-11-28T09:36:28.506Z,4.37
2022-11-28T09:38:55.997Z,4.39
2022-11-28T09:41:42.229Z,4.45
2022-11-28T09:44:22.314Z,4.47
2022-11-28T09:46:55.853Z,4.50
2022-11-28T09:49:45.717Z,4.49
2022-11-28T09:52:35.346Z,4.50
2022-11-28T09:55:35.806Z,4.58
2022-11-28T09:58:36.672Z,4.61
2022-11-28T10:01:26.795Z,4.65
2022-11-28T10:04:09.474Z,4.68
2022-11-28T10:06:45.439Z,4.72
2022-11-28T10:09:39.949Z,4.75
2022-11-28T10:12:34.290Z,4.77
2022-11-28T10:15:04.700Z,4.80
2022-11-28T10:17:54.751Z,4.81
2022-11-28T10:20:24.370Z,4.83
2022-11-28T10:23:03.080Z,4.80
2022-11-28T10:25:43.390Z,4.86
2022-11-28T10:28:16.056Z,4.91
2022-11-28T10:30:48.156Z,4.93
2022-11-28T10:33:27.462Z,4.92
2022-11-28T10:36:02.627Z,4.99
2022-11-28T10:38:34.182Z,4.98
2022-11-28T10:41:37.075Z,5.00
2022-11-28T10:44:23.500Z,5.01
2022-11-28T10:47:01.877Z,5.06
2022-11-28T10:49:47.752Z,5.06
2022-11-28T10:52:21.686Z,5.08
2022-11-28T10:55:20.134Z,5.07
2022-11-28T10:58:09.332Z,5.11
2022-11-28T11:00:37.523Z,5.11
2022-11-28T11:03:06.016Z,5.18
2022-11-28T11:05:35.579Z,5.14
2022-11-28T11:08:08.916Z,5.15
2022-11-28T11:10:49.301Z,5.16
2022-11-28T11:13:21.421Z,5.15
2022-11-28T11:15:51.908Z,5.20
2022-11-28T11:18:27.982Z,5.23
2022-11-28T11:21:18.378Z,5.29
2022-11-28T11:23:46.485Z,5.35
2022-11-28T11:26:24.020Z,5.37
2022-11-28T11:28:52.376Z,5.41
2022-11-28T11:31:28.419Z,5.46
2022-11-28T11:34:03.405Z,5.51
2022-11-28T11:36:36.332Z,5.54
2022-11-28T11:39:06.984Z,5.57
2022-11-28T11:41:34.799Z,5.65
2022-11-28T11:44:14.617Z,5.70
2022-11-28T11:46:51.419Z,5.78
2022-11-28T11:49:49.042Z,5.83
2022-11-28T11:52:26.768Z,5.87
2022-11-28T11:54:57.256Z,5.91
2022-11-28T11:57:37.445Z,5.90
2022-11-28T12:00:07.359Z,5.91
2022-11-28T12:02:45.286Z,5.98
2022-11-28T12:05:21.985Z,6.05
2022-11-28T12:08:00.263Z,6.06
2022-11-28T12:10:31.230Z,6.12
2022-11-28T12:12:58.608Z,6.14
2022-11-28T12:15:47.716Z,6.19
2022-11-28T12:18:53.844Z,6.18
2022-11-28T12:21:39.968Z,6.20
2022-11-28T12:24:12.438Z,6.24
2022-11-28T12:26:45.134Z,6.22
2022-11-28T12:29:12.599Z,6.26
2022-11-28T12:31:55.442Z,6.28
2022-11-28T12:34:41.394Z,6.26
2022-11-28T12:38:12.178Z,6.26
2022-11-28T12:41:01.425Z,6.24
2022-11-28T12:43:28.845Z,6.27
2022-11-28T12:46:05.289Z,6.27
2022-11-28T12:48:58.616Z,6.29
2022-11-28T12:51:34.267Z,6.31
2022-11-28T12:54:01.526Z,6.30
2022-11-28T12:56:54.645Z,6.32
2022-11-28T12:59:27.585Z,6.35
2022-11-28T13:02:18.004Z,6.40
2022-11-28T13:05:10.670Z,6.40
2022-11-28T13:08:15.291Z,6.36
2022-11-28T13:10:50.693Z,6.33
2022-11-28T13:13:41.316Z,6.31
2022-11-28T13:16:26.671Z,6.33
2022-11-28T13:19:00.531Z,6.31
2022-11-28T13:21:37.071Z,6.33
2022-11-28T13:24:26.056Z,6.26
2022-11-28T13:27:32.524Z,6.26
2022-11-28T13:30:20.367Z,6.27
2022-11-28T13:33:00.015Z,6.27
2022-11-28T13:35:28.654Z,6.29
2022-11-28T13:38:47.178Z,6.23
2022-11-28T13:41:43.867Z,6.06
2022-11-28T13:44:28.677Z,6.05
2022-11-28T13:46:56.797Z,6.02
2022-11-28T13:49:26.496Z,5.96
2022-11-28T13:52:18.849Z,5.97
2022-11-28T13:54:55.625Z,6.03
2022-11-28T13:57:39.284Z,5.99
2022-11-28T14:00:25.254Z,5.91
2022-11-28T14:02:55.052Z,5.88
2022-11-28T14:05:34.949Z,5.94
2022-11-28T14:08:04.201Z,5.91
2022-11-28T14:10:38.220Z,5.76
2022-11-28T14:13:28.147Z,5.79
2022-11-28T14:16:01.260Z,5.70
2022-11-28T14:19:10.339Z,5.57
2022-11-28T14:21:40.977Z,5.53
2022-11-28T14:24:27.141Z,5.48
2022-11-28T14:26:58.564Z,5.44
2022-11-28T14:29:35.310Z,5.40
2022-11-28T14:34:50.947Z,5.43
2022-11-28T14:37:21.490Z,5.37
2022-11-28T14:39:49.928Z,5.26
2022-11-28T14:42:44.157Z,5.16
2022-11-28T14:54:44.362Z,5.23
2022-11-28T15:09:49.986Z,4.94
2022-11-28T15:30:04.918Z,4.72
2022-11-28T15:46:26.880Z,4.73
2022-11-28T15:57:43.859Z,4.75
2022-11-28T16:00:15.841Z,4.68
2022-11-28T16:02:44.339Z,4.51
2022-11-28T16:05:16.150Z,4.50
2022-11-28T16:07:44.525Z,4.55
2022-11-28T16:10:25.132Z,4.47
2022-11-28T16:13:01.217Z,4.50
2022-11-28T16:37:34.928Z,4.45
2022-11-28T16:48:38.749Z,4.27
2022-11-28T16:51:11.652Z,4.29
2022-11-28T17:10:46.281Z,4.31
2022-11-28T17:17:39.006Z,4.23
2022-11-28T17:20:07.057Z,4.22
2022-11-28T17:22:59.978Z,4.25
2022-11-28T17:25:27.446Z,4.26
2022-11-28T17:27:54.934Z,4.26
2022-11-28T17:30:22.488Z,4.21
2022-11-28T17:37:40.885Z,4.18
2022-11-28T20:41:54.894Z,4.00
2022-11-28T23:04:06.507Z,3.91
2022-11-28T23:15:52.889Z,3.88
2022-11-28T23:22:51.635Z,3.83
2022-11-28T23:30:10.316Z,3.82
